Time;durP1;ratioP1;P1;durP2;ratioP2;P2;SDS_P1;SDS_P2;PMS_P1;PMS_P2;Temp;Humidity;BMP_temperature;BMP_pressure;BME280_temperature;BME280_humidity;BME280_pressure;Samples;Min_cycle;Max_cycle;Signal;HPM_P1;HPM_P2
2021/11/13 00:00:52;;;;;;;44.63;25.30;;;9.00;99.90;;;;;;5068573;28;20060;-76
2021/11/13 00:03:18;;;;;;;39.55;25.52;;;9.00;99.90;;;;;;5038499;28;20036;-76
2021/11/13 00:05:44;;;;;;;40.88;25.38;;;9.10;99.90;;;;;;5072064;28;20047;-75
2021/11/13 00:08:11;;;;;;;43.42;25.58;;;9.00;99.90;;;;;;5038290;28;20098;-76
2021/11/13 00:10:38;;;;;;;47.10;26.58;;;9.10;99.90;;;;;;5055152;28;20052;-76
2021/11/13 00:13:06;;;;;;;45.85;27.20;;;9.10;99.90;;;;;;5071470;28;20048;-77
2021/11/13 00:15:35;;;;;;;41.53;25.58;;;9.00;99.90;;;;;;5053032;28;20036;-78
2021/11/13 00:18:01;;;;;;;41.83;25.30;;;9.30;99.90;;;;;;5038092;28;20047;-78
2021/11/13 00:20:27;;;;;;;43.83;26.25;;;9.00;99.90;;;;;;5054575;28;20115;-77
2021/11/13 00:22:54;;;;;;;54.45;27.48;;;9.40;99.90;;;;;;5038443;28;20068;-78
2021/11/13 00:25:20;;;;;;;45.75;26.27;;;9.20;99.90;;;;;;5022264;28;20075;-79
2021/11/13 00:27:48;;;;;;;48.13;28.52;;;9.10;99.90;;;;;;5037419;28;20508;-78
2021/11/13 00:30:18;;;;;;;43.30;26.13;;;9.10;99.90;;;;;;5036087;28;20123;-78
2021/11/13 00:32:44;;;;;;;43.83;26.95;;;9.10;99.90;;;;;;5037418;28;20129;-75
2021/11/13 00:35:11;;;;;;;37.55;24.95;;;9.10;99.90;;;;;;5026718;28;20041;-75
2021/11/13 00:37:40;;;;;;;41.15;25.92;;;9.10;99.90;;;;;;5036691;28;20072;-75
2021/11/13 00:40:08;;;;;;;52.38;27.55;;;9.10;99.90;;;;;;5023691;28;20036;-76
2021/11/13 00:42:34;;;;;;;45.55;26.95;;;9.10;99.90;;;;;;5037679;28;20113;-75
2021/11/13 00:45:00;;;;;;;41.15;26.15;;;9.10;99.90;;;;;;5047710;28;20536;-75
2021/11/13 00:47:26;;;;;;;41.80;26.33;;;9.20;99.90;;;;;;5072170;28;20365;-76
2021/11/13 00:49:52;;;;;;;40.80;26.73;;;9.10;99.90;;;;;;5054571;28;20033;-75
2021/11/13 00:52:18;;;;;;;46.35;26.73;;;9.10;99.90;;;;;;5037208;28;20032;-75
2021/11/13 00:54:46;;;;;;;41.75;27.52;;;9.20;99.90;;;;;;5054707;28;20172;-75
2021/11/13 00:57:13;;;;;;;42.63;27.10;;;9.10;99.90;;;;;;5053746;28;20040;-75
2021/11/13 00:59:38;;;;;;;47.05;28.33;;;9.10;99.90;;;;;;5070706;28;20429;-75
2021/11/13 01:02:06;;;;;;;39.53;25.52;;;9.10;99.90;;;;;;5052821;28;20044;-75
2021/11/13 01:04:32;;;;;;;45.33;25.85;;;9.10;99.90;;;;;;5072166;28;20036;-75
2021/11/13 01:06:58;;;;;;;41.67;26.55;;;9.10;99.90;;;;;;5053914;28;20109;-75
2021/11/13 01:09:24;;;;;;;44.40;27.02;;;9.10;99.90;;;;;;5054705;28;20048;-76
2021/11/13 01:11:50;;;;;;;38.90;25.58;;;9.00;99.90;;;;;;5054221;28;20116;-76
2021/11/13 01:14:23;;;;;;;43.42;26.85;;;9.00;99.90;;;;;;5072265;28;20072;-76
2021/11/13 01:16:49;;;;;;;38.80;26.10;;;9.10;99.90;;;;;;5052492;28;20079;-76
2021/11/13 01:19:15;;;;;;;43.75;25.65;;;9.10;99.90;;;;;;5071502;28;20481;-76
2021/11/13 01:21:41;;;;;;;40.20;25.83;;;9.60;99.90;;;;;;5054271;28;20119;-75
2021/11/13 01:24:07;;;;;;;41.58;26.15;;;9.10;99.90;;;;;;5072092;28;20083;-75
2021/11/13 01:26:33;;;;;;;41.15;25.00;;;9.10;99.90;;;;;;5072286;28;20040;-75
2021/11/13 01:28:59;;;;;;;34.65;23.55;;;9.10;99.90;;;;;;5053927;28;20057;-75
2021/11/13 01:31:30;;;;;;;41.33;26.50;;;9.10;99.90;;;;;;5072097;28;20117;-76
2021/11/13 01:34:03;;;;;;;43.53;26.17;;;9.10;99.90;;;;;;5051913;28;20039;-75
2021/11/13 01:36:28;;;;;;;41.25;24.88;;;9.00;99.90;;;;;;5054281;28;20509;-77
2021/11/13 01:38:54;;;;;;;44.97;26.50;;;9.10;99.90;;;;;;5071746;28;20124;-77
2021/11/13 01:41:21;;;;;;;42.53;26.30;;;9.00;99.90;;;;;;5037678;28;20393;-77
2021/11/13 01:43:50;;;;;;;42.90;26.20;;;9.10;99.90;;;;;;5054233;28;20052;-77
2021/11/13 01:46:16;;;;;;;38.17;25.80;;;9.10;99.90;;;;;;5036881;28;20051;-77
2021/11/13 01:48:42;;;;;;;39.92;25.55;;;9.10;99.90;;;;;;5069865;28;20036;-77
2021/11/13 01:51:20;;;;;;;39.55;25.65;;;9.10;99.90;;;;;;5054058;28;20370;-77
2021/11/13 01:53:50;;;;;;;39.42;24.50;;;9.10;99.90;;;;;;5053663;28;20048;-77
2021/11/13 01:56:26;;;;;;;43.53;26.67;;;9.10;99.90;;;;;;5028858;28;20039;-77
2021/11/13 01:58:54;;;;;;;38.60;26.52;;;9.20;99.90;;;;;;5054208;28;20040;-77
2021/11/13 02:01:22;;;;;;;39.60;25.52;;;9.10;99.90;;;;;;5036761;28;20036;-77
2021/11/13 02:03:49;;;;;;;39.65;26.05;;;9.10;99.90;;;;;;5052826;28;20040;-77
2021/11/13 02:06:16;;;;;;;39.60;24.90;;;9.10;99.90;;;;;;5060042;28;20040;-77
2021/11/13 02:08:42;;;;;;;39.58;24.75;;;9.20;99.90;;;;;;5053919;28;20055;-77
2021/11/13 02:11:14;;;;;;;40.72;23.88;;;9.10;99.90;;;;;;5071755;28;20033;-77
2021/11/13 02:13:40;;;;;;;38.78;24.88;;;9.10;99.90;;;;;;5052968;28;20048;-77
2021/11/13 02:16:08;;;;;;;39.70;25.35;;;9.10;99.90;;;;;;5037614;28;20036;-77
2021/11/13 02:18:39;;;;;;;37.40;24.05;;;9.10;99.90;;;;;;5055389;28;20094;-77
2021/11/13 02:21:06;;;;;;;33.72;24.23;;;9.10;99.90;;;;;;5074851;28;20098;-77
2021/11/13 02:23:32;;;;;;;37.85;23.85;;;9.20;99.90;;;;;;5055053;28;20044;-77
2021/11/13 02:25:58;;;;;;;33.38;22.83;;;9.30;99.90;;;;;;5057284;28;20116;-77
2021/11/13 02:28:26;;;;;;;36.03;22.88;;;9.10;99.90;;;;;;5074373;28;20465;-77
2021/11/13 02:30:56;;;;;;;30.65;22.83;;;9.20;99.90;;;;;;5056312;28;20036;-77
2021/11/13 02:33:22;;;;;;;30.98;23.42;;;9.20;99.90;;;;;;5074781;28;20032;-77
2021/11/13 02:35:49;;;;;;;32.42;21.45;;;9.10;99.90;;;;;;5040436;28;20128;-75
2021/11/13 02:38:24;;;;;;;30.02;21.77;;;9.20;99.90;;;;;;5056709;28;20094;-76
2021/11/13 02:40:55;;;;;;;30.90;21.77;;;9.20;99.90;;;;;;5073775;28;20033;-75
2021/11/13 02:43:22;;;;;;;30.40;21.80;;;9.20;99.90;;;;;;5074486;28;20036;-77
2021/11/13 02:45:47;;;;;;;29.60;20.65;;;9.30;99.90;;;;;;5057042;28;20188;-77
2021/11/13 02:48:14;;;;;;;30.27;20.83;;;9.20;99.90;;;;;;5056730;28;20520;-77
2021/11/13 02:50:43;;;;;;;32.17;20.45;;;9.40;99.90;;;;;;5039736;28;20051;-78
2021/11/13 02:53:28;;;;;;;29.70;19.88;;;9.20;99.90;;;;;;5056250;28;20117;-77
2021/11/13 02:55:55;;;;;;;30.50;20.40;;;9.20;99.90;;;;;;5066614;28;20044;-77
2021/11/13 02:58:23;;;;;;;25.77;19.63;;;9.20;99.90;;;;;;5056707;28;20046;-77
2021/11/13 03:00:51;;;;;;;26.73;19.27;;;9.20;99.90;;;;;;5056566;28;20037;-77
2021/11/13 03:03:21;;;;;;;26.15;19.02;;;9.20;99.90;;;;;;5056910;28;20040;-77
2021/11/13 03:05:53;;;;;;;24.15;18.13;;;9.20;99.90;;;;;;5056406;28;20090;-77
2021/11/13 03:08:31;;;;;;;24.02;18.08;;;9.20;99.90;;;;;;5056352;28;20106;-77
2021/11/13 03:10:59;;;;;;;26.50;18.40;;;9.20;99.90;;;;;;5039077;28;20041;-76
2021/11/13 03:13:29;;;;;;;24.02;17.60;;;9.20;99.90;;;;;;5051588;28;20049;-77
2021/11/13 03:15:55;;;;;;;22.95;17.02;;;9.20;99.90;;;;;;5055991;28;20097;-77
2021/11/13 03:18:21;;;;;;;23.15;18.27;;;9.30;99.90;;;;;;5056356;28;20119;-77
2021/11/13 03:20:47;;;;;;;21.70;16.98;;;9.30;99.90;;;;;;5056243;28;20128;-77
2021/11/13 03:23:14;;;;;;;26.40;18.05;;;9.30;99.90;;;;;;5073615;28;20169;-77
2021/11/13 03:25:47;;;;;;;22.45;16.73;;;9.30;99.90;;;;;;5056202;28;20054;-77
2021/11/13 03:28:19;;;;;;;19.67;15.82;;;9.30;99.90;;;;;;5041209;28;22806;-75
2021/11/13 03:30:45;;;;;;;20.98;16.45;;;9.60;99.90;;;;;;5038493;28;20394;-74
2021/11/13 03:33:11;;;;;;;22.85;17.20;;;9.30;99.90;;;;;;5056047;28;20040;-75
2021/11/13 03:35:37;;;;;;;25.60;17.30;;;9.40;99.90;;;;;;5038713;28;20049;-76
2021/11/13 03:38:07;;;;;;;22.83;17.40;;;9.30;99.90;;;;;;5055908;28;20036;-75
2021/11/13 03:40:34;;;;;;;22.98;17.63;;;9.50;99.90;;;;;;5055993;28;20043;-75
2021/11/13 03:42:59;;;;;;;22.08;16.85;;;9.40;99.90;;;;;;5039498;28;20040;-76
2021/11/13 03:45:26;;;;;;;21.38;16.17;;;9.30;99.90;;;;;;5052524;28;20557;-75
2021/11/13 03:47:53;;;;;;;22.20;16.70;;;9.30;99.90;;;;;;5055287;28;20068;-76
2021/11/13 03:50:19;;;;;;;21.25;16.30;;;9.30;99.90;;;;;;5053975;28;20044;-75
2021/11/13 03:52:45;;;;;;;23.83;17.33;;;9.30;99.90;;;;;;5051112;28;20044;-75
2021/11/13 03:55:12;;;;;;;23.27;17.63;;;8.80;99.90;;;;;;5055440;28;20041;-75
2021/11/13 03:57:37;;;;;;;22.67;17.73;;;10.00;99.90;;;;;;5054782;28;20047;-75
2021/11/13 04:00:09;;;;;;;22.40;16.98;;;9.70;99.90;;;;;;5055736;28;20440;-76
2021/11/13 04:02:35;;;;;;;24.50;18.15;;;9.40;99.90;;;;;;5053649;28;20029;-75
2021/11/13 04:05:01;;;;;;;22.60;17.35;;;9.40;99.90;;;;;;5073106;28;20052;-75
2021/11/13 04:07:26;;;;;;;33.35;20.35;;;9.40;99.90;;;;;;5038815;28;20055;-75
2021/11/13 04:09:52;;;;;;;22.58;17.98;;;9.40;99.90;;;;;;5055355;28;20139;-75
2021/11/13 04:12:18;;;;;;;28.52;19.80;;;9.70;99.90;;;;;;5055185;28;20412;-75
2021/11/13 04:14:45;;;;;;;26.75;19.48;;;9.40;99.90;;;;;;5054710;28;20059;-76
2021/11/13 04:17:11;;;;;;;25.35;20.15;;;9.60;99.90;;;;;;5038209;28;20040;-76
2021/11/13 04:19:38;;;;;;;24.35;18.83;;;9.40;99.90;;;;;;5071616;28;20048;-75
2021/11/13 04:22:04;;;;;;;27.17;19.77;;;9.40;99.90;;;;;;5054021;28;20083;-75
2021/11/13 04:24:30;;;;;;;25.10;19.88;;;9.40;99.90;;;;;;5037529;28;20036;-75
2021/11/13 04:26:56;;;;;;;28.20;20.95;;;9.50;99.90;;;;;;5021696;28;20106;-75
2021/11/13 04:29:22;;;;;;;33.28;22.10;;;9.50;99.90;;;;;;5021537;28;20048;-75
2021/11/13 04:31:47;;;;;;;29.90;22.08;;;9.50;99.90;;;;;;5055045;28;20098;-76
2021/11/13 04:34:18;;;;;;;28.58;21.83;;;9.50;99.90;;;;;;5054005;28;20412;-75
2021/11/13 04:36:46;;;;;;;34.25;22.30;;;9.90;99.90;;;;;;5070755;28;20102;-75
2021/11/13 04:39:13;;;;;;;32.47;23.45;;;9.50;99.90;;;;;;5054765;28;20489;-75
2021/11/13 04:41:41;;;;;;;29.45;22.92;;;9.50;99.90;;;;;;5054104;28;20044;-75
2021/11/13 04:44:07;;;;;;;34.38;23.70;;;10.00;99.90;;;;;;5072867;28;20105;-75
2021/11/13 04:46:33;;;;;;;40.10;24.23;;;9.50;99.90;;;;;;5072413;28;20041;-76
2021/11/13 04:48:58;;;;;;;29.83;22.20;;;9.70;99.90;;;;;;5072893;28;20186;-76
2021/11/13 04:51:24;;;;;;;36.35;24.00;;;9.50;99.90;;;;;;5036226;28;20141;-76
2021/11/13 04:53:56;;;;;;;33.13;23.60;;;9.60;99.90;;;;;;5038028;28;20489;-76
2021/11/13 04:56:33;;;;;;;;;;;;;;;;;;;;;
2021/11/13 04:59:02;;;;;;;31.42;22.63;;;9.60;99.90;;;;;;5054517;28;20036;-76
2021/11/13 05:01:27;;;;;;;33.65;23.85;;;9.60;99.90;;;;;;5054016;28;20373;-76
2021/11/13 05:03:53;;;;;;;33.75;24.33;;;9.70;99.90;;;;;;5072160;28;20520;-76
2021/11/13 05:06:21;;;;;;;35.33;23.58;;;9.60;99.90;;;;;;5072789;28;20037;-76
2021/11/13 05:08:46;;;;;;;34.75;23.77;;;9.60;99.90;;;;;;5051400;28;20099;-76
2021/11/13 05:11:12;;;;;;;30.38;23.55;;;9.60;99.90;;;;;;5053154;28;20068;-77
2021/11/13 05:13:38;;;;;;;29.73;22.85;;;9.60;99.90;;;;;;5054491;28;20052;-78
2021/11/13 05:16:04;;;;;;;35.13;24.85;;;9.60;99.90;;;;;;5054023;28;20047;-78
2021/11/13 05:18:30;;;;;;;33.05;24.73;;;9.60;99.90;;;;;;5071638;28;20041;-78
2021/11/13 05:20:56;;;;;;;34.95;25.10;;;9.70;99.90;;;;;;5054478;28;20037;-78
2021/11/13 05:23:22;;;;;;;33.58;24.40;;;9.70;99.90;;;;;;5053659;28;20041;-78
2021/11/13 05:25:47;;;;;;;39.08;26.80;;;9.70;99.90;;;;;;5070617;28;20028;-78
2021/11/13 05:28:13;;;;;;;37.90;25.92;;;9.70;99.90;;;;;;5021072;28;20432;-78
2021/11/13 05:30:39;;;;;;;34.63;24.80;;;9.70;99.90;;;;;;5054111;28;20049;-78
2021/11/13 05:33:04;;;;;;;39.40;26.15;;;9.80;99.90;;;;;;5054242;28;20032;-78
2021/11/13 05:35:30;;;;;;;39.17;25.67;;;9.70;99.90;;;;;;5054260;28;20511;-78
2021/11/13 05:37:56;;;;;;;34.10;25.02;;;10.50;99.90;;;;;;5053622;28;20060;-78
2021/11/13 05:40:22;;;;;;;41.47;27.98;;;10.40;99.90;;;;;;5054172;28;20135;-78
2021/11/13 05:42:49;;;;;;;36.00;25.58;;;9.70;99.90;;;;;;5052595;28;20025;-78
2021/11/13 05:45:16;;;;;;;45.42;27.98;;;9.70;99.90;;;;;;5062594;28;20032;-76
2021/11/13 05:47:42;;;;;;;44.85;28.52;;;9.70;99.90;;;;;;5053916;28;20040;-76
2021/11/13 05:50:12;;;;;;;45.55;29.42;;;9.70;99.90;;;;;;5036791;28;20051;-76
2021/11/13 05:52:41;;;;;;;46.58;28.75;;;9.70;99.90;;;;;;5054106;28;20044;-76
2021/11/13 05:55:09;;;;;;;44.60;28.45;;;9.70;99.90;;;;;;5041623;28;20044;-76
2021/11/13 05:57:35;;;;;;;46.28;28.40;;;9.70;99.90;;;;;;5040886;28;20043;-76
2021/11/13 06:00:01;;;;;;;45.67;29.85;;;9.80;99.90;;;;;;5055920;28;20040;-76
2021/11/13 06:02:26;;;;;;;44.85;29.67;;;9.80;99.90;;;;;;5040882;28;20112;-76
2021/11/13 06:04:52;;;;;;;45.72;30.17;;;9.80;99.90;;;;;;5024537;28;20487;-76
2021/11/13 06:07:18;;;;;;;45.78;29.92;;;9.80;99.90;;;;;;5057874;28;20097;-76
2021/11/13 06:09:44;;;;;;;50.42;30.13;;;9.80;99.90;;;;;;5057787;28;20041;-76
2021/11/13 06:12:10;;;;;;;44.15;29.30;;;9.80;99.90;;;;;;5057448;28;20040;-76
2021/11/13 06:14:35;;;;;;;52.78;31.85;;;9.80;99.90;;;;;;5040942;28;20067;-76
2021/11/13 06:17:02;;;;;;;62.13;32.45;;;9.80;99.90;;;;;;5057021;28;20046;-77
2021/11/13 06:19:28;;;;;;;45.45;30.08;;;9.90;99.90;;;;;;5039019;28;20040;-77
2021/11/13 06:21:53;;;;;;;44.53;28.95;;;9.80;99.90;;;;;;5056458;28;20404;-77
2021/11/13 06:24:19;;;;;;;47.92;30.70;;;9.80;99.90;;;;;;5017896;28;20115;-77
2021/11/13 06:26:48;;;;;;;52.00;31.38;;;9.80;99.90;;;;;;5063098;28;20037;-76
2021/11/13 06:29:13;;;;;;;48.45;31.40;;;9.80;99.90;;;;;;5056749;28;20060;-76
2021/11/13 06:31:40;;;;;;;47.25;31.50;;;9.90;99.90;;;;;;5057669;28;20098;-76
2021/11/13 06:34:06;;;;;;;47.58;29.55;;;9.80;99.90;;;;;;5056602;28;20044;-75
2021/11/13 06:36:32;;;;;;;54.20;32.13;;;9.80;99.90;;;;;;5072741;28;20043;-76
2021/11/13 06:38:57;;;;;;;49.90;30.38;;;9.90;99.90;;;;;;5040481;28;20049;-76
2021/11/13 06:41:26;;;;;;;45.65;29.45;;;9.90;99.90;;;;;;5040598;28;20036;-76
2021/11/13 06:43:53;;;;;;;48.80;32.50;;;9.90;99.90;;;;;;5040475;28;20076;-76
2021/11/13 06:46:19;;;;;;;45.13;29.73;;;9.90;99.90;;;;;;5051384;28;20036;-76
2021/11/13 06:48:44;;;;;;;43.75;31.02;;;9.90;99.90;;;;;;5036946;28;20083;-76
2021/11/13 06:51:10;;;;;;;43.97;29.73;;;10.00;99.90;;;;;;5053822;28;20127;-77
2021/11/13 06:53:36;;;;;;;47.53;29.50;;;10.00;99.90;;;;;;5055147;28;20072;-78
2021/11/13 06:56:02;;;;;;;50.72;31.75;;;9.90;99.90;;;;;;5039986;28;20043;-76
2021/11/13 06:58:28;;;;;;;52.90;32.20;;;9.90;99.90;;;;;;5074549;28;20076;-76
2021/11/13 07:00:54;;;;;;;49.03;32.10;;;9.90;99.90;;;;;;5040134;28;20137;-76
2021/11/13 07:03:19;;;;;;;49.78;32.05;;;9.90;99.90;;;;;;5074229;28;20158;-76
2021/11/13 07:05:45;;;;;;;51.63;29.65;;;9.90;99.90;;;;;;5040046;28;20445;-76
2021/11/13 07:08:11;;;;;;;49.72;30.85;;;10.10;99.90;;;;;;5021761;28;20046;-76
2021/11/13 07:10:37;;;;;;;51.95;31.30;;;9.90;99.90;;;;;;5022514;28;20417;-76
2021/11/13 07:13:03;;;;;;;50.78;32.25;;;9.90;99.90;;;;;;5056812;28;20040;-76
2021/11/13 07:15:31;;;;;;;44.75;28.95;;;9.90;99.90;;;;;;5056409;28;20045;-76
2021/11/13 07:17:59;;;;;;;47.15;31.65;;;9.90;99.90;;;;;;5056386;28;20044;-76
2021/11/13 07:20:25;;;;;;;40.40;28.13;;;10.00;99.90;;;;;;5039594;28;20044;-78
2021/11/13 07:22:51;;;;;;;47.53;31.05;;;10.00;99.90;;;;;;5021919;28;20493;-77
2021/11/13 07:25:17;;;;;;;45.92;30.25;;;10.00;99.90;;;;;;5038197;28;20120;-78
2021/11/13 07:27:46;;;;;;;54.10;30.95;;;10.00;99.90;;;;;;5074023;28;20049;-79
2021/11/13 07:30:15;;;;;;;45.15;30.52;;;10.00;99.90;;;;;;5056443;28;20123;-78
2021/11/13 07:32:41;;;;;;;41.33;29.42;;;10.10;99.90;;;;;;5055766;28;20049;-78
2021/11/13 07:35:07;;;;;;;46.50;29.70;;;10.00;99.90;;;;;;5056131;28;20449;-78
2021/11/13 07:37:33;;;;;;;51.17;30.40;;;10.00;99.90;;;;;;5055848;28;20127;-78
2021/11/13 07:39:59;;;;;;;52.50;31.55;;;10.00;99.90;;;;;;5055180;28;20373;-75
2021/11/13 07:42:25;;;;;;;48.70;29.50;;;10.00;99.90;;;;;;5053778;28;20036;-75
2021/11/13 07:44:51;;;;;;;45.47;29.88;;;10.10;99.90;;;;;;5055660;28;20041;-77
2021/11/13 07:47:17;;;;;;;42.95;28.80;;;10.00;99.90;;;;;;5036214;28;20071;-78
2021/11/13 07:49:43;;;;;;;45.38;28.85;;;10.00;99.90;;;;;;5073040;28;20427;-75
2021/11/13 07:52:09;;;;;;;44.30;29.92;;;10.00;99.90;;;;;;5055531;28;20096;-75
2021/11/13 07:54:35;;;;;;;51.50;30.55;;;10.10;99.90;;;;;;5055634;28;20045;-78
2021/11/13 07:57:02;;;;;;;43.45;30.20;;;10.10;99.90;;;;;;5055678;28;20412;-76
2021/11/13 07:59:28;;;;;;;45.38;27.75;;;10.10;99.90;;;;;;5054098;28;20075;-78
2021/11/13 08:01:53;;;;;;;52.33;30.73;;;10.10;99.90;;;;;;5055742;28;20033;-78
2021/11/13 08:04:19;;;;;;;61.92;32.78;;;10.20;99.90;;;;;;5055229;28;20036;-78
2021/11/13 08:06:45;;;;;;;50.60;30.48;;;10.10;99.90;;;;;;5054812;28;20040;-78
2021/11/13 08:09:10;;;;;;;45.80;30.58;;;10.10;99.90;;;;;;5055419;28;20044;-78
2021/11/13 08:11:36;;;;;;;47.25;28.70;;;10.20;99.90;;;;;;5055442;28;20126;-78
2021/11/13 08:14:02;;;;;;;42.92;29.15;;;10.10;99.90;;;;;;5036605;28;20037;-78
2021/11/13 08:16:28;;;;;;;48.00;29.23;;;10.10;99.90;;;;;;5071399;28;20315;-76
2021/11/13 08:18:54;;;;;;;50.85;29.70;;;9.80;99.90;;;;;;5054601;28;20518;-76
2021/11/13 08:21:21;;;;;;;45.97;27.73;;;10.80;99.90;;;;;;5046681;28;20134;-76
2021/11/13 08:23:47;;;;;;;50.25;30.42;;;10.10;99.90;;;;;;5055593;28;20036;-76
2021/11/13 08:26:13;;;;;;;45.25;29.08;;;10.10;99.90;;;;;;5055484;28;20103;-78
2021/11/13 08:28:39;;;;;;;46.50;29.30;;;10.10;99.90;;;;;;5036300;28;20057;-78
2021/11/13 08:31:07;;;;;;;49.40;29.50;;;10.20;99.90;;;;;;5065836;28;20384;-76
2021/11/13 08:33:33;;;;;;;44.17;29.52;;;10.20;99.90;;;;;;5037720;28;20032;-76
2021/11/13 08:35:59;;;;;;;43.50;28.55;;;10.30;99.90;;;;;;5037574;28;20432;-76
2021/11/13 08:38:25;;;;;;;41.58;29.33;;;10.20;99.90;;;;;;5035462;28;20078;-78
2021/11/13 08:40:53;;;;;;;49.75;29.73;;;10.20;99.90;;;;;;5053361;28;20056;-78
2021/11/13 08:43:20;;;;;;;46.67;28.52;;;10.20;99.90;;;;;;5054180;28;20032;-78
2021/11/13 08:45:47;;;;;;;42.65;28.95;;;10.20;99.90;;;;;;5051353;28;20090;-78
2021/11/13 08:48:15;;;;;;;45.83;29.33;;;10.30;99.90;;;;;;5032981;28;20044;-74
2021/11/13 08:50:42;;;;;;;43.28;27.98;;;10.20;99.90;;;;;;5037964;28;20044;-74
2021/11/13 08:53:08;;;;;;;49.88;29.90;;;10.30;99.90;;;;;;5047457;28;20110;-75
2021/11/13 08:55:38;;;;;;;50.22;30.17;;;10.30;99.90;;;;;;5050343;28;20098;-76
2021/11/13 08:58:05;;;;;;;42.55;27.60;;;10.30;99.90;;;;;;5051996;28;20052;-76
2021/11/13 09:00:35;;;;;;;43.20;28.02;;;10.40;99.90;;;;;;5052927;28;20167;-76
2021/11/13 09:03:05;;;;;;;37.25;27.55;;;10.30;99.90;;;;;;5053136;28;20037;-76
2021/11/13 09:05:31;;;;;;;43.25;27.77;;;10.40;99.90;;;;;;5070908;28;20047;-73
2021/11/13 09:07:59;;;;;;;43.97;28.60;;;10.80;99.90;;;;;;5062688;28;20073;-81
2021/11/13 09:10:26;;;;;;;49.85;29.88;;;10.40;99.90;;;;;;5051042;28;20543;-77
2021/11/13 09:12:52;;;;;;;37.83;26.80;;;10.40;99.90;;;;;;5066057;28;20068;-76
2021/11/13 09:15:24;;;;;;;46.63;29.15;;;10.40;99.90;;;;;;5069166;28;20821;-78
2021/11/13 09:17:51;;;;;;;55.88;31.05;;;10.40;99.90;;;;;;5035589;28;20105;-77
2021/11/13 09:20:18;;;;;;;45.53;29.67;;;10.40;99.90;;;;;;5052760;28;20028;-79
2021/11/13 09:22:44;;;;;;;47.03;29.90;;;10.40;99.90;;;;;;5050513;28;20048;-76
2021/11/13 09:25:10;;;;;;;42.88;28.27;;;10.40;99.90;;;;;;5033969;28;20059;-75
2021/11/13 09:27:38;;;;;;;37.78;27.48;;;10.40;99.90;;;;;;5036807;28;20432;-75
2021/11/13 09:30:06;;;;;;;44.30;28.52;;;10.50;99.90;;;;;;5055789;28;20055;-75
2021/11/13 09:32:33;;;;;;;47.08;28.08;;;10.40;99.90;;;;;;5052017;28;20041;-76
2021/11/13 09:34:59;;;;;;;39.13;27.38;;;10.50;99.90;;;;;;5076067;28;20033;-75
2021/11/13 09:37:25;;;;;;;44.40;27.63;;;10.50;99.90;;;;;;5052689;28;20487;-75
2021/11/13 09:39:50;;;;;;;41.88;28.40;;;10.50;99.90;;;;;;5050450;28;20045;-76
2021/11/13 09:42:18;;;;;;;43.78;28.50;;;10.50;99.90;;;;;;5052566;28;20123;-76
2021/11/13 09:44:44;;;;;;;38.08;27.48;;;10.50;99.90;;;;;;5073633;28;20068;-73
2021/11/13 09:47:11;;;;;;;41.15;27.73;;;10.50;99.90;;;;;;5052435;28;20041;-74
2021/11/13 09:49:36;;;;;;;39.97;27.73;;;10.70;99.90;;;;;;5075125;28;20052;-75
2021/11/13 09:52:03;;;;;;;44.92;27.60;;;10.50;99.90;;;;;;5025113;28;20456;-74
2021/11/13 09:54:28;;;;;;;50.47;31.02;;;10.50;99.90;;;;;;5059645;28;20534;-74
2021/11/13 09:56:55;;;;;;;40.47;27.88;;;10.50;99.90;;;;;;5075023;28;20044;-75
2021/11/13 09:59:22;;;;;;;41.47;28.00;;;10.60;99.90;;;;;;5075460;28;20033;-75
2021/11/13 10:01:48;;;;;;;42.35;28.35;;;10.80;99.90;;;;;;5051867;28;20389;-75
2021/11/13 10:04:14;;;;;;;39.50;27.23;;;10.60;99.90;;;;;;5041492;28;20064;-76
2021/11/13 10:06:41;;;;;;;39.95;28.83;;;10.70;99.90;;;;;;5057334;28;20433;-74
2021/11/13 10:09:07;;;;;;;40.55;26.98;;;10.70;99.90;;;;;;5056902;28;20040;-76
2021/11/13 10:11:37;;;;;;;38.42;27.63;;;10.70;99.90;;;;;;5045627;28;20045;-75
2021/11/13 10:14:02;;;;;;;43.75;27.55;;;10.70;99.90;;;;;;5073339;28;20043;-74
2021/11/13 10:16:39;;;;;;;40.72;27.58;;;10.80;99.90;;;;;;5038798;28;20416;-73
2021/11/13 10:19:13;;;;;;;38.35;27.30;;;10.70;99.90;;;;;;5070843;28;20045;-74
2021/11/13 10:21:43;;;;;;;39.95;25.48;;;10.70;99.90;;;;;;5071072;28;20056;-73
2021/11/13 10:24:18;;;;;;;40.80;26.40;;;10.70;99.90;;;;;;5074326;28;20036;-73
2021/11/13 10:26:48;;;;;;;40.03;25.63;;;10.70;99.90;;;;;;5051141;28;20040;-74
2021/11/13 10:29:28;;;;;;;45.58;27.95;;;10.70;99.90;;;;;;5075202;28;20048;-72
2021/11/13 10:31:57;;;;;;;37.17;26.42;;;10.80;99.90;;;;;;5075073;28;20558;-72
2021/11/13 10:34:31;;;;;;;39.65;27.60;;;10.80;99.90;;;;;;5073889;28;20101;-71
2021/11/13 10:37:00;;;;;;;39.20;27.65;;;11.00;99.90;;;;;;5056240;28;20037;-72
2021/11/13 10:39:33;;;;;;;44.30;28.17;;;10.80;99.90;;;;;;5071513;28;20516;-72
2021/11/13 10:42:10;;;;;;;40.78;27.95;;;10.80;99.90;;;;;;5054660;28;20037;-72
2021/11/13 10:44:41;;;;;;;40.25;26.65;;;10.90;99.90;;;;;;5036270;28;20033;-72
2021/11/13 10:47:21;;;;;;;36.55;27.38;;;10.90;99.90;;;;;;5072727;28;20025;-71
2021/11/13 10:49:49;;;;;;;41.58;28.73;;;10.90;99.90;;;;;;5054719;28;20374;-75
2021/11/13 10:52:18;;;;;;;42.20;27.83;;;11.00;99.90;;;;;;5054632;28;20037;-76
2021/11/13 10:54:48;;;;;;;39.25;25.98;;;11.10;99.90;;;;;;5053546;28;20047;-75
2021/11/13 10:57:28;;;;;;;36.92;26.65;;;11.00;99.90;;;;;;5073397;28;20125;-74
2021/11/13 10:59:54;;;;;;;35.97;26.67;;;11.10;99.90;;;;;;5037464;28;20048;-74
2021/11/13 11:02:22;;;;;;;39.22;25.90;;;11.10;99.90;;;;;;5036850;28;20649;-74
2021/11/13 11:04:48;;;;;;;37.35;26.33;;;11.20;99.90;;;;;;5072088;28;20032;-73
2021/11/13 11:07:20;;;;;;;34.53;26.05;;;11.20;99.90;;;;;;5055552;28;20075;-73
2021/11/13 11:10:09;;;;;;;33.30;25.40;;;11.20;99.90;;;;;;5039588;28;20048;-72
2021/11/13 11:12:37;;;;;;;33.70;25.25;;;11.30;99.90;;;;;;5056218;28;20048;-72
2021/11/13 11:15:14;;;;;;;42.20;29.00;;;11.40;99.90;;;;;;5074445;28;20037;-72
2021/11/13 11:17:42;;;;;;;36.58;26.30;;;11.40;99.90;;;;;;5054701;28;20051;-71
2021/11/13 11:20:16;;;;;;;36.15;26.02;;;11.50;99.90;;;;;;5049156;28;20119;-71
2021/11/13 11:22:43;;;;;;;55.58;38.33;;;11.50;99.90;;;;;;5071273;28;20028;-71
2021/11/13 11:25:13;;;;;;;33.97;24.80;;;11.50;99.90;;;;;;5052793;28;20037;-71
2021/11/13 11:27:47;;;;;;;34.58;24.70;;;11.50;99.90;;;;;;5056148;28;20397;-73
2021/11/13 11:30:25;;;;;;;35.13;24.92;;;11.50;99.90;;;;;;5055755;28;20445;-83
2021/11/13 11:32:57;;;;;;;35.13;24.30;;;11.40;99.90;;;;;;5026791;28;20038;-77
2021/11/13 11:35:27;;;;;;;36.78;23.13;;;11.50;99.90;;;;;;5060057;28;20048;-77
2021/11/13 11:38:06;;;;;;;33.50;23.33;;;11.50;99.90;;;;;;5025810;28;20062;-77
2021/11/13 11:40:35;;;;;;;35.30;23.00;;;11.60;99.90;;;;;;5056362;28;20037;-77
2021/11/13 11:43:01;;;;;;;35.28;23.00;;;11.50;99.90;;;;;;5074039;28;20055;-77
2021/11/13 11:45:30;;;;;;;31.77;22.63;;;11.60;99.90;;;;;;5039437;28;20512;-77
2021/11/13 11:47:57;;;;;;;31.35;23.55;;;11.50;99.90;;;;;;5074140;28;20032;-77
2021/11/13 11:50:27;;;;;;;34.33;23.73;;;11.60;99.90;;;;;;5054184;28;20032;-77
2021/11/13 11:52:55;;;;;;;34.60;23.40;;;11.60;99.90;;;;;;5056233;28;20037;-77
2021/11/13 11:55:23;;;;;;;35.40;23.48;;;11.70;99.90;;;;;;5073860;28;20087;-77
2021/11/13 11:58:01;;;;;;;30.17;22.70;;;11.60;99.90;;;;;;5073592;28;20036;-77
2021/11/13 12:00:32;;;;;;;29.02;21.58;;;11.60;99.90;;;;;;5073592;28;20050;-79
2021/11/13 12:03:02;;;;;;;35.03;24.77;;;11.60;99.90;;;;;;5055623;28;20043;-78
2021/11/13 12:05:31;;;;;;;28.73;21.30;;;11.60;99.90;;;;;;5049423;28;20588;-78
2021/11/13 12:08:16;;;;;;;30.50;22.05;;;11.70;99.90;;;;;;5047306;28;20571;-77
2021/11/13 12:10:47;;;;;;;29.92;20.85;;;11.70;99.90;;;;;;5073451;28;20029;-78
2021/11/13 12:13:33;;;;;;;34.53;21.50;;;11.70;99.90;;;;;;5055299;28;20054;-78
2021/11/13 12:16:01;;;;;;;27.75;21.75;;;11.80;99.90;;;;;;5056313;28;20376;-78
2021/11/13 12:18:29;;;;;;;29.88;22.58;;;11.80;99.90;;;;;;5054857;28;20041;-78
2021/11/13 12:21:01;;;;;;;30.10;20.05;;;11.90;99.90;;;;;;5055272;28;20036;-78
2021/11/13 12:23:39;;;;;;;30.67;20.67;;;11.80;99.90;;;;;;5049691;28;20029;-78
2021/11/13 12:26:32;;;;;;;25.25;19.67;;;11.90;99.90;;;;;;5042215;28;20381;-77
2021/11/13 12:29:01;;;;;;;30.15;20.88;;;11.90;99.90;;;;;;5038009;28;20061;-78
2021/11/13 12:31:47;;;;;;;30.60;21.00;;;12.10;99.90;;;;;;5055037;28;20118;-77
2021/11/13 12:34:16;;;;;;;30.48;21.88;;;12.00;99.90;;;;;;5072562;28;20043;-78
2021/11/13 12:36:49;;;;;;;29.50;21.30;;;12.00;99.90;;;;;;5038656;28;20048;-78